sensor_id;sensor_type;location;lat;lon;timestamp;P1;durP1;ratioP1;P2;durP2;ratioP2
9763;SDS011;4921;43.214;27.936;2023-09-30T00:02:25;6.10;;;4.13;;
9763;SDS011;4921;43.214;27.936;2023-09-30T00:04:51;7.77;;;3.87;;
9763;SDS011;4921;43.214;27.936;2023-09-30T00:07:19;4.70;;;4.00;;
9763;SDS011;4921;43.214;27.936;2023-09-30T00:09:47;8.67;;;3.80;;
9763;SDS011;4921;43.214;27.936;2023-09-30T00:12:16;11.17;;;4.47;;
9763;SDS011;4921;43.214;27.936;2023-09-30T00:14:43;5.43;;;4.00;;
9763;SDS011;4921;43.214;27.936;2023-09-30T00:17:10;8.87;;;4.63;;
9763;SDS011;4921;43.214;27.936;2023-09-30T00:19:37;8.30;;;3.67;;
9763;SDS011;4921;43.214;27.936;2023-09-30T00:22:04;7.40;;;3.73;;
9763;SDS011;4921;43.214;27.936;2023-09-30T00:24:31;9.37;;;4.50;;
9763;SDS011;4921;43.214;27.936;2023-09-30T00:27:00;8.43;;;3.83;;
9763;SDS011;4921;43.214;27.936;2023-09-30T00:29:27;7.37;;;3.80;;
9763;SDS011;4921;43.214;27.936;2023-09-30T00:31:54;7.70;;;3.80;;
9763;SDS011;4921;43.214;27.936;2023-09-30T00:34:21;6.87;;;4.30;;
9763;SDS011;4921;43.214;27.936;2023-09-30T00:36:47;12.53;;;4.03;;
9763;SDS011;4921;43.214;27.936;2023-09-30T00:39:14;8.57;;;3.57;;
9763;SDS011;4921;43.214;27.936;2023-09-30T00:41:41;7.00;;;3.40;;
9763;SDS011;4921;43.214;27.936;2023-09-30T00:44:09;4.13;;;3.70;;
9763;SDS011;4921;43.214;27.936;2023-09-30T00:46:37;5.10;;;3.63;;
9763;SDS011;4921;43.214;27.936;2023-09-30T00:49:06;5.13;;;3.70;;
9763;SDS011;4921;43.214;27.936;2023-09-30T00:51:35;7.90;;;3.97;;
9763;SDS011;4921;43.214;27.936;2023-09-30T00:54:03;8.77;;;4.57;;
9763;SDS011;4921;43.214;27.936;2023-09-30T00:56:31;6.93;;;4.07;;
9763;SDS011;4921;43.214;27.936;2023-09-30T00:58:59;7.40;;;4.37;;
9763;SDS011;4921;43.214;27.936;2023-09-30T01:01:27;11.07;;;5.33;;
9763;SDS011;4921;43.214;27.936;2023-09-30T01:03:54;12.13;;;5.40;;
9763;SDS011;4921;43.214;27.936;2023-09-30T01:06:21;8.67;;;5.27;;
9763;SDS011;4921;43.214;27.936;2023-09-30T01:08:48;10.63;;;6.07;;
9763;SDS011;4921;43.214;27.936;2023-09-30T01:11:17;7.63;;;5.07;;
9763;SDS011;4921;43.214;27.936;2023-09-30T01:13:44;11.47;;;5.60;;
9763;SDS011;4921;43.214;27.936;2023-09-30T01:16:12;9.13;;;5.30;;
9763;SDS011;4921;43.214;27.936;2023-09-30T01:18:41;8.63;;;5.27;;
9763;SDS011;4921;43.214;27.936;2023-09-30T01:21:09;12.67;;;5.60;;
9763;SDS011;4921;43.214;27.936;2023-09-30T01:23:37;7.20;;;4.93;;
9763;SDS011;4921;43.214;27.936;2023-09-30T01:26:06;11.07;;;5.50;;
9763;SDS011;4921;43.214;27.936;2023-09-30T01:28:35;10.03;;;5.73;;
9763;SDS011;4921;43.214;27.936;2023-09-30T01:31:02;8.53;;;5.33;;
9763;SDS011;4921;43.214;27.936;2023-09-30T01:33:29;10.40;;;5.57;;
9763;SDS011;4921;43.214;27.936;2023-09-30T01:35:56;10.17;;;5.10;;
9763;SDS011;4921;43.214;27.936;2023-09-30T01:38:24;8.57;;;5.03;;
9763;SDS011;4921;43.214;27.936;2023-09-30T01:40:53;8.03;;;4.67;;
9763;SDS011;4921;43.214;27.936;2023-09-30T01:43:20;6.17;;;4.93;;
9763;SDS011;4921;43.214;27.936;2023-09-30T01:45:47;7.70;;;4.93;;
9763;SDS011;4921;43.214;27.936;2023-09-30T01:48:14;10.07;;;5.10;;
9763;SDS011;4921;43.214;27.936;2023-09-30T01:50:41;14.00;;;5.10;;
9763;SDS011;4921;43.214;27.936;2023-09-30T01:53:08;10.60;;;5.10;;
9763;SDS011;4921;43.214;27.936;2023-09-30T01:55:35;10.50;;;4.90;;
9763;SDS011;4921;43.214;27.936;2023-09-30T01:58:04;12.13;;;4.87;;
9763;SDS011;4921;43.214;27.936;2023-09-30T02:00:31;6.67;;;4.50;;
9763;SDS011;4921;43.214;27.936;2023-09-30T02:03:00;9.37;;;5.40;;
9763;SDS011;4921;43.214;27.936;2023-09-30T02:05:27;5.30;;;4.53;;
9763;SDS011;4921;43.214;27.936;2023-09-30T02:07:55;11.00;;;4.93;;
9763;SDS011;4921;43.214;27.936;2023-09-30T02:10:31;7.90;;;4.73;;
9763;SDS011;4921;43.214;27.936;2023-09-30T02:12:59;9.00;;;4.80;;
9763;SDS011;4921;43.214;27.936;2023-09-30T02:15:27;8.53;;;4.20;;
9763;SDS011;4921;43.214;27.936;2023-09-30T02:17:54;6.20;;;4.33;;
9763;SDS011;4921;43.214;27.936;2023-09-30T02:20:21;7.23;;;4.40;;
9763;SDS011;4921;43.214;27.936;2023-09-30T02:22:51;7.03;;;4.47;;
9763;SDS011;4921;43.214;27.936;2023-09-30T02:25:19;8.63;;;4.50;;
9763;SDS011;4921;43.214;27.936;2023-09-30T02:27:46;10.57;;;4.10;;
9763;SDS011;4921;43.214;27.936;2023-09-30T02:30:13;9.27;;;4.10;;
9763;SDS011;4921;43.214;27.936;2023-09-30T02:32:42;7.97;;;3.70;;
9763;SDS011;4921;43.214;27.936;2023-09-30T02:35:11;11.37;;;4.50;;
9763;SDS011;4921;43.214;27.936;2023-09-30T02:37:39;8.40;;;3.90;;
9763;SDS011;4921;43.214;27.936;2023-09-30T02:40:06;9.90;;;4.30;;
9763;SDS011;4921;43.214;27.936;2023-09-30T02:42:35;9.07;;;4.10;;
9763;SDS011;4921;43.214;27.936;2023-09-30T02:45:03;9.10;;;4.07;;
9763;SDS011;4921;43.214;27.936;2023-09-30T02:47:30;6.63;;;4.07;;
9763;SDS011;4921;43.214;27.936;2023-09-30T02:49:59;12.40;;;3.97;;
9763;SDS011;4921;43.214;27.936;2023-09-30T02:52:26;5.80;;;3.57;;
9763;SDS011;4921;43.214;27.936;2023-09-30T02:54:54;7.67;;;4.13;;
9763;SDS011;4921;43.214;27.936;2023-09-30T02:57:22;9.77;;;4.13;;
9763;SDS011;4921;43.214;27.936;2023-09-30T02:59:49;9.27;;;4.07;;
9763;SDS011;4921;43.214;27.936;2023-09-30T03:02:17;6.50;;;4.47;;
9763;SDS011;4921;43.214;27.936;2023-09-30T03:04:43;10.23;;;4.73;;
9763;SDS011;4921;43.214;27.936;2023-09-30T03:07:13;11.30;;;4.80;;
9763;SDS011;4921;43.214;27.936;2023-09-30T03:09:40;7.67;;;4.30;;
9763;SDS011;4921;43.214;27.936;2023-09-30T03:12:12;11.13;;;4.63;;
9763;SDS011;4921;43.214;27.936;2023-09-30T03:14:40;7.87;;;4.90;;
9763;SDS011;4921;43.214;27.936;2023-09-30T03:17:07;10.93;;;5.07;;
9763;SDS011;4921;43.214;27.936;2023-09-30T03:19:37;11.10;;;5.30;;
9763;SDS011;4921;43.214;27.936;2023-09-30T03:22:04;10.83;;;4.87;;
9763;SDS011;4921;43.214;27.936;2023-09-30T03:24:37;10.17;;;4.53;;
9763;SDS011;4921;43.214;27.936;2023-09-30T03:27:04;6.73;;;4.37;;
9763;SDS011;4921;43.214;27.936;2023-09-30T03:29:32;7.50;;;4.47;;
9763;SDS011;4921;43.214;27.936;2023-09-30T03:32:01;10.63;;;4.87;;
9763;SDS011;4921;43.214;27.936;2023-09-30T03:34:28;11.53;;;4.70;;
9763;SDS011;4921;43.214;27.936;2023-09-30T03:36:55;9.73;;;4.70;;
9763;SDS011;4921;43.214;27.936;2023-09-30T03:39:23;14.70;;;4.50;;
9763;SDS011;4921;43.214;27.936;2023-09-30T03:41:54;9.23;;;4.40;;
9763;SDS011;4921;43.214;27.936;2023-09-30T03:44:23;14.73;;;5.00;;
9763;SDS011;4921;43.214;27.936;2023-09-30T03:46:50;7.17;;;4.10;;
9763;SDS011;4921;43.214;27.936;2023-09-30T03:49:17;8.50;;;4.17;;
9763;SDS011;4921;43.214;27.936;2023-09-30T03:51:46;7.03;;;4.50;;
9763;SDS011;4921;43.214;27.936;2023-09-30T03:54:15;11.13;;;4.50;;
9763;SDS011;4921;43.214;27.936;2023-09-30T03:56:42;12.53;;;4.33;;
9763;SDS011;4921;43.214;27.936;2023-09-30T03:59:11;8.60;;;3.93;;
9763;SDS011;4921;43.214;27.936;2023-09-30T04:01:38;6.97;;;4.00;;
9763;SDS011;4921;43.214;27.936;2023-09-30T04:04:05;9.80;;;4.07;;
9763;SDS011;4921;43.214;27.936;2023-09-30T04:06:34;13.40;;;4.67;;
9763;SDS011;4921;43.214;27.936;2023-09-30T04:09:03;8.00;;;4.53;;
9763;SDS011;4921;43.214;27.936;2023-09-30T04:11:35;11.47;;;4.47;;
9763;SDS011;4921;43.214;27.936;2023-09-30T04:14:02;7.43;;;3.90;;
9763;SDS011;4921;43.214;27.936;2023-09-30T04:16:31;10.27;;;4.20;;
9763;SDS011;4921;43.214;27.936;2023-09-30T04:18:58;8.97;;;4.20;;
9763;SDS011;4921;43.214;27.936;2023-09-30T04:21:25;8.60;;;4.17;;
9763;SDS011;4921;43.214;27.936;2023-09-30T04:23:53;12.03;;;4.30;;
9763;SDS011;4921;43.214;27.936;2023-09-30T04:26:21;10.53;;;4.03;;
9763;SDS011;4921;43.214;27.936;2023-09-30T04:28:48;11.07;;;4.30;;
9763;SDS011;4921;43.214;27.936;2023-09-30T04:31:15;7.33;;;3.90;;
9763;SDS011;4921;43.214;27.936;2023-09-30T04:33:44;10.43;;;4.50;;
9763;SDS011;4921;43.214;27.936;2023-09-30T04:36:12;9.57;;;4.10;;
9763;SDS011;4921;43.214;27.936;2023-09-30T04:38:38;7.17;;;3.83;;
9763;SDS011;4921;43.214;27.936;2023-09-30T04:41:05;6.40;;;4.10;;
9763;SDS011;4921;43.214;27.936;2023-09-30T04:43:32;7.43;;;4.03;;
9763;SDS011;4921;43.214;27.936;2023-09-30T04:45:59;12.80;;;4.10;;
9763;SDS011;4921;43.214;27.936;2023-09-30T04:48:26;9.40;;;4.30;;
9763;SDS011;4921;43.214;27.936;2023-09-30T04:50:55;4.23;;;3.83;;
9763;SDS011;4921;43.214;27.936;2023-09-30T04:53:22;9.47;;;4.00;;
9763;SDS011;4921;43.214;27.936;2023-09-30T04:55:49;7.03;;;4.40;;
9763;SDS011;4921;43.214;27.936;2023-09-30T04:58:16;9.10;;;4.40;;
9763;SDS011;4921;43.214;27.936;2023-09-30T05:00:43;12.80;;;4.83;;
9763;SDS011;4921;43.214;27.936;2023-09-30T05:03:10;4.87;;;4.13;;
9763;SDS011;4921;43.214;27.936;2023-09-30T05:05:37;7.87;;;4.10;;
9763;SDS011;4921;43.214;27.936;2023-09-30T05:08:05;11.27;;;4.17;;
9763;SDS011;4921;43.214;27.936;2023-09-30T05:10:33;6.83;;;3.77;;
9763;SDS011;4921;43.214;27.936;2023-09-30T05:12:59;9.17;;;4.40;;
9763;SDS011;4921;43.214;27.936;2023-09-30T05:15:26;9.43;;;4.10;;
9763;SDS011;4921;43.214;27.936;2023-09-30T05:17:57;7.30;;;4.13;;
9763;SDS011;4921;43.214;27.936;2023-09-30T05:20:23;9.07;;;4.60;;
9763;SDS011;4921;43.214;27.936;2023-09-30T05:22:50;10.53;;;4.70;;
9763;SDS011;4921;43.214;27.936;2023-09-30T05:25:19;9.13;;;4.53;;
9763;SDS011;4921;43.214;27.936;2023-09-30T05:27:51;10.77;;;4.70;;
9763;SDS011;4921;43.214;27.936;2023-09-30T05:30:17;12.17;;;5.00;;
9763;SDS011;4921;43.214;27.936;2023-09-30T05:32:45;9.27;;;4.40;;
9763;SDS011;4921;43.214;27.936;2023-09-30T05:35:12;9.70;;;4.53;;
9763;SDS011;4921;43.214;27.936;2023-09-30T05:37:42;10.03;;;4.63;;
9763;SDS011;4921;43.214;27.936;2023-09-30T05:40:10;9.93;;;4.47;;
9763;SDS011;4921;43.214;27.936;2023-09-30T05:42:46;12.57;;;5.00;;
9763;SDS011;4921;43.214;27.936;2023-09-30T05:45:15;10.57;;;4.43;;
9763;SDS011;4921;43.214;27.936;2023-09-30T05:47:42;10.47;;;4.30;;
9763;SDS011;4921;43.214;27.936;2023-09-30T05:50:10;5.87;;;4.30;;
9763;SDS011;4921;43.214;27.936;2023-09-30T05:52:39;10.03;;;4.67;;
9763;SDS011;4921;43.214;27.936;2023-09-30T05:55:07;13.40;;;4.43;;
9763;SDS011;4921;43.214;27.936;2023-09-30T05:57:34;6.67;;;4.67;;
9763;SDS011;4921;43.214;27.936;2023-09-30T06:00:03;9.07;;;4.47;;
9763;SDS011;4921;43.214;27.936;2023-09-30T06:02:36;14.67;;;5.13;;
9763;SDS011;4921;43.214;27.936;2023-09-30T06:05:03;14.50;;;5.27;;
9763;SDS011;4921;43.214;27.936;2023-09-30T06:07:31;10.30;;;4.80;;
9763;SDS011;4921;43.214;27.936;2023-09-30T06:09:58;11.53;;;4.80;;
9763;SDS011;4921;43.214;27.936;2023-09-30T06:12:28;8.87;;;4.93;;
9763;SDS011;4921;43.214;27.936;2023-09-30T06:14:55;13.53;;;5.37;;
9763;SDS011;4921;43.214;27.936;2023-09-30T06:17:25;11.57;;;5.17;;
9763;SDS011;4921;43.214;27.936;2023-09-30T06:19:52;14.13;;;5.63;;
9763;SDS011;4921;43.214;27.936;2023-09-30T06:22:18;11.70;;;4.90;;
9763;SDS011;4921;43.214;27.936;2023-09-30T06:24:46;9.30;;;4.60;;
9763;SDS011;4921;43.214;27.936;2023-09-30T06:27:13;13.77;;;5.23;;
9763;SDS011;4921;43.214;27.936;2023-09-30T06:29:40;9.87;;;5.37;;
9763;SDS011;4921;43.214;27.936;2023-09-30T06:32:07;14.37;;;5.67;;
9763;SDS011;4921;43.214;27.936;2023-09-30T06:34:36;9.53;;;5.53;;
9763;SDS011;4921;43.214;27.936;2023-09-30T06:37:02;15.67;;;5.67;;
9763;SDS011;4921;43.214;27.936;2023-09-30T06:39:29;11.27;;;5.57;;
9763;SDS011;4921;43.214;27.936;2023-09-30T06:41:56;12.80;;;5.93;;
9763;SDS011;4921;43.214;27.936;2023-09-30T06:44:23;6.13;;;5.03;;
9763;SDS011;4921;43.214;27.936;2023-09-30T06:46:51;10.20;;;5.40;;
9763;SDS011;4921;43.214;27.936;2023-09-30T06:49:20;14.17;;;5.93;;
9763;SDS011;4921;43.214;27.936;2023-09-30T06:51:48;9.97;;;5.63;;
9763;SDS011;4921;43.214;27.936;2023-09-30T06:54:15;12.20;;;6.23;;
9763;SDS011;4921;43.214;27.936;2023-09-30T06:56:42;11.27;;;5.90;;
9763;SDS011;4921;43.214;27.936;2023-09-30T06:59:09;15.50;;;5.87;;
9763;SDS011;4921;43.214;27.936;2023-09-30T07:01:36;9.87;;;5.83;;
9763;SDS011;4921;43.214;27.936;2023-09-30T07:04:02;10.57;;;5.67;;
9763;SDS011;4921;43.214;27.936;2023-09-30T07:06:29;16.30;;;5.40;;
9763;SDS011;4921;43.214;27.936;2023-09-30T07:08:58;12.37;;;6.10;;
9763;SDS011;4921;43.214;27.936;2023-09-30T07:11:27;10.97;;;5.57;;
9763;SDS011;4921;43.214;27.936;2023-09-30T07:13:57;9.23;;;5.70;;
9763;SDS011;4921;43.214;27.936;2023-09-30T07:16:24;10.87;;;5.80;;
9763;SDS011;4921;43.214;27.936;2023-09-30T07:18:51;8.40;;;5.77;;
9763;SDS011;4921;43.214;27.936;2023-09-30T07:21:18;8.60;;;5.60;;
9763;SDS011;4921;43.214;27.936;2023-09-30T07:23:45;13.30;;;5.70;;
9763;SDS011;4921;43.214;27.936;2023-09-30T07:26:14;13.43;;;5.27;;
9763;SDS011;4921;43.214;27.936;2023-09-30T07:28:41;11.83;;;5.70;;
9763;SDS011;4921;43.214;27.936;2023-09-30T07:31:08;7.30;;;4.90;;
9763;SDS011;4921;43.214;27.936;2023-09-30T07:33:34;10.67;;;5.23;;
9763;SDS011;4921;43.214;27.936;2023-09-30T07:36:01;8.50;;;4.53;;
9763;SDS011;4921;43.214;27.936;2023-09-30T07:38:28;11.27;;;5.50;;
9763;SDS011;4921;43.214;27.936;2023-09-30T07:40:55;15.40;;;5.67;;
9763;SDS011;4921;43.214;27.936;2023-09-30T07:43:24;11.37;;;5.13;;
9763;SDS011;4921;43.214;27.936;2023-09-30T07:45:51;11.63;;;5.10;;
9763;SDS011;4921;43.214;27.936;2023-09-30T07:48:17;8.53;;;4.83;;
9763;SDS011;4921;43.214;27.936;2023-09-30T07:50:44;10.17;;;5.10;;
9763;SDS011;4921;43.214;27.936;2023-09-30T07:53:12;10.93;;;5.10;;
9763;SDS011;4921;43.214;27.936;2023-09-30T07:55:39;14.40;;;5.17;;
9763;SDS011;4921;43.214;27.936;2023-09-30T07:58:06;13.57;;;5.00;;
9763;SDS011;4921;43.214;27.936;2023-09-30T08:00:34;12.23;;;5.23;;
9763;SDS011;4921;43.214;27.936;2023-09-30T08:03:01;12.97;;;5.00;;
9763;SDS011;4921;43.214;27.936;2023-09-30T08:05:37;6.37;;;4.67;;
9763;SDS011;4921;43.214;27.936;2023-09-30T08:08:08;9.03;;;4.77;;
9763;SDS011;4921;43.214;27.936;2023-09-30T08:10:35;9.20;;;4.87;;
9763;SDS011;4921;43.214;27.936;2023-09-30T08:13:02;11.87;;;4.67;;
9763;SDS011;4921;43.214;27.936;2023-09-30T08:15:29;9.03;;;5.30;;
9763;SDS011;4921;43.214;27.936;2023-09-30T08:17:58;13.63;;;5.07;;
9763;SDS011;4921;43.214;27.936;2023-09-30T08:20:25;8.47;;;5.23;;
9763;SDS011;4921;43.214;27.936;2023-09-30T08:22:52;12.97;;;4.97;;
9763;SDS011;4921;43.214;27.936;2023-09-30T08:25:19;6.50;;;4.53;;
9763;SDS011;4921;43.214;27.936;2023-09-30T08:27:45;8.53;;;4.77;;
9763;SDS011;4921;43.214;27.936;2023-09-30T08:30:14;9.13;;;4.77;;
9763;SDS011;4921;43.214;27.936;2023-09-30T08:32:42;13.10;;;5.10;;
9763;SDS011;4921;43.214;27.936;2023-09-30T08:35:10;11.47;;;4.90;;
9763;SDS011;4921;43.214;27.936;2023-09-30T08:37:39;8.87;;;5.10;;
9763;SDS011;4921;43.214;27.936;2023-09-30T08:40:06;14.30;;;5.40;;
9763;SDS011;4921;43.214;27.936;2023-09-30T08:42:35;15.60;;;5.23;;
9763;SDS011;4921;43.214;27.936;2023-09-30T08:45:05;10.13;;;5.27;;
9763;SDS011;4921;43.214;27.936;2023-09-30T08:47:36;10.17;;;4.60;;
9763;SDS011;4921;43.214;27.936;2023-09-30T08:50:05;12.23;;;5.00;;
9763;SDS011;4921;43.214;27.936;2023-09-30T08:52:36;11.87;;;4.70;;
9763;SDS011;4921;43.214;27.936;2023-09-30T08:55:06;11.30;;;4.63;;
9763;SDS011;4921;43.214;27.936;2023-09-30T08:57:34;10.87;;;4.63;;
9763;SDS011;4921;43.214;27.936;2023-09-30T09:00:05;6.60;;;4.77;;
9763;SDS011;4921;43.214;27.936;2023-09-30T09:02:33;11.47;;;4.57;;
9763;SDS011;4921;43.214;27.936;2023-09-30T09:05:01;13.10;;;4.70;;
9763;SDS011;4921;43.214;27.936;2023-09-30T09:07:28;8.73;;;4.90;;
9763;SDS011;4921;43.214;27.936;2023-09-30T09:10:07;9.03;;;4.50;;
9763;SDS011;4921;43.214;27.936;2023-09-30T09:12:35;7.33;;;4.70;;
9763;SDS011;4921;43.214;27.936;2023-09-30T09:15:04;10.80;;;4.97;;
9763;SDS011;4921;43.214;27.936;2023-09-30T09:17:39;12.57;;;4.70;;
9763;SDS011;4921;43.214;27.936;2023-09-30T09:20:07;14.63;;;5.13;;
9763;SDS011;4921;43.214;27.936;2023-09-30T09:22:39;9.07;;;4.47;;
9763;SDS011;4921;43.214;27.936;2023-09-30T09:25:09;12.83;;;5.10;;
9763;SDS011;4921;43.214;27.936;2023-09-30T09:27:36;15.77;;;4.90;;
9763;SDS011;4921;43.214;27.936;2023-09-30T09:32:59;13.40;;;5.30;;
9763;SDS011;4921;43.214;27.936;2023-09-30T09:35:28;13.47;;;4.60;;
9763;SDS011;4921;43.214;27.936;2023-09-30T09:37:58;13.93;;;4.40;;
9763;SDS011;4921;43.214;27.936;2023-09-30T09:40:28;9.00;;;4.77;;
9763;SDS011;4921;43.214;27.936;2023-09-30T09:42:57;11.33;;;5.10;;
9763;SDS011;4921;43.214;27.936;2023-09-30T09:45:25;12.47;;;4.97;;
9763;SDS011;4921;43.214;27.936;2023-09-30T09:47:53;12.07;;;4.67;;
9763;SDS011;4921;43.214;27.936;2023-09-30T09:50:22;12.67;;;5.13;;
9763;SDS011;4921;43.214;27.936;2023-09-30T09:52:50;14.33;;;5.00;;
9763;SDS011;4921;43.214;27.936;2023-09-30T09:55:19;11.17;;;4.43;;
9763;SDS011;4921;43.214;27.936;2023-09-30T09:57:50;12.60;;;4.57;;
9763;SDS011;4921;43.214;27.936;2023-09-30T10:00:18;13.50;;;5.30;;
9763;SDS011;4921;43.214;27.936;2023-09-30T10:02:46;11.87;;;5.40;;
9763;SDS011;4921;43.214;27.936;2023-09-30T10:05:14;15.27;;;4.87;;
9763;SDS011;4921;43.214;27.936;2023-09-30T10:07:43;6.30;;;4.87;;
9763;SDS011;4921;43.214;27.936;2023-09-30T10:10:16;11.50;;;4.50;;
9763;SDS011;4921;43.214;27.936;2023-09-30T10:12:45;11.23;;;4.90;;
9763;SDS011;4921;43.214;27.936;2023-09-30T10:18:05;9.90;;;4.90;;
9763;SDS011;4921;43.214;27.936;2023-09-30T10:20:35;11.23;;;4.73;;
9763;SDS011;4921;43.214;27.936;2023-09-30T10:23:17;11.63;;;4.77;;
9763;SDS011;4921;43.214;27.936;2023-09-30T10:25:49;11.57;;;5.00;;
9763;SDS011;4921;43.214;27.936;2023-09-30T10:28:38;14.87;;;4.30;;
9763;SDS011;4921;43.214;27.936;2023-09-30T10:31:11;11.13;;;4.63;;
9763;SDS011;4921;43.214;27.936;2023-09-30T10:36:44;16.80;;;4.90;;
9763;SDS011;4921;43.214;27.936;2023-09-30T10:39:12;12.83;;;4.77;;
9763;SDS011;4921;43.214;27.936;2023-09-30T10:41:49;10.77;;;5.73;;
9763;SDS011;4921;43.214;27.936;2023-09-30T10:44:34;13.67;;;4.60;;
9763;SDS011;4921;43.214;27.936;2023-09-30T10:50:03;11.37;;;4.60;;
9763;SDS011;4921;43.214;27.936;2023-09-30T10:52:30;10.53;;;4.50;;
9763;SDS011;4921;43.214;27.936;2023-09-30T10:55:02;12.03;;;5.17;;
9763;SDS011;4921;43.214;27.936;2023-09-30T10:57:32;10.53;;;4.93;;
9763;SDS011;4921;43.214;27.936;2023-09-30T11:00:08;10.67;;;4.30;;
9763;SDS011;4921;43.214;27.936;2023-09-30T11:02:48;12.13;;;4.87;;
9763;SDS011;4921;43.214;27.936;2023-09-30T11:05:18;9.47;;;4.70;;
9763;SDS011;4921;43.214;27.936;2023-09-30T11:07:47;14.27;;;4.60;;
9763;SDS011;4921;43.214;27.936;2023-09-30T11:10:16;9.47;;;6.00;;
9763;SDS011;4921;43.214;27.936;2023-09-30T11:12:55;11.57;;;5.77;;
9763;SDS011;4921;43.214;27.936;2023-09-30T11:15:22;11.90;;;6.90;;
9763;SDS011;4921;43.214;27.936;2023-09-30T11:17:51;12.13;;;6.80;;
9763;SDS011;4921;43.214;27.936;2023-09-30T11:20:18;13.83;;;7.00;;
9763;SDS011;4921;43.214;27.936;2023-09-30T11:25:34;12.27;;;7.27;;
9763;SDS011;4921;43.214;27.936;2023-09-30T11:28:12;13.90;;;7.00;;
9763;SDS011;4921;43.214;27.936;2023-09-30T11:30:52;8.67;;;5.63;;
9763;SDS011;4921;43.214;27.936;2023-09-30T11:33:24;18.90;;;8.03;;
9763;SDS011;4921;43.214;27.936;2023-09-30T11:35:59;12.87;;;8.23;;
9763;SDS011;4921;43.214;27.936;2023-09-30T11:38:27;17.77;;;8.90;;
9763;SDS011;4921;43.214;27.936;2023-09-30T11:40:58;16.50;;;9.13;;
9763;SDS011;4921;43.214;27.936;2023-09-30T11:43:27;14.10;;;9.37;;
9763;SDS011;4921;43.214;27.936;2023-09-30T11:46:03;20.00;;;8.97;;
9763;SDS011;4921;43.214;27.936;2023-09-30T11:48:32;14.30;;;9.53;;
9763;SDS011;4921;43.214;27.936;2023-09-30T11:50:59;14.50;;;9.00;;
9763;SDS011;4921;43.214;27.936;2023-09-30T11:53:28;19.00;;;10.00;;
9763;SDS011;4921;43.214;27.936;2023-09-30T11:55:55;18.23;;;10.57;;
9763;SDS011;4921;43.214;27.936;2023-09-30T11:58:24;15.97;;;9.23;;
9763;SDS011;4921;43.214;27.936;2023-09-30T12:00:55;12.73;;;9.53;;
9763;SDS011;4921;43.214;27.936;2023-09-30T12:03:24;18.00;;;9.80;;
9763;SDS011;4921;43.214;27.936;2023-09-30T12:05:53;15.40;;;9.87;;
9763;SDS011;4921;43.214;27.936;2023-09-30T12:08:21;14.30;;;10.20;;
9763;SDS011;4921;43.214;27.936;2023-09-30T12:10:48;18.97;;;9.97;;
9763;SDS011;4921;43.214;27.936;2023-09-30T12:13:15;21.53;;;10.93;;
9763;SDS011;4921;43.214;27.936;2023-09-30T12:15:43;20.17;;;10.37;;
9763;SDS011;4921;43.214;27.936;2023-09-30T12:18:10;21.40;;;10.03;;
9763;SDS011;4921;43.214;27.936;2023-09-30T12:20:42;15.50;;;9.47;;
9763;SDS011;4921;43.214;27.936;2023-09-30T12:23:10;13.47;;;9.73;;
9763;SDS011;4921;43.214;27.936;2023-09-30T12:25:37;14.30;;;9.80;;
9763;SDS011;4921;43.214;27.936;2023-09-30T12:28:04;11.47;;;9.50;;
9763;SDS011;4921;43.214;27.936;2023-09-30T12:30:31;15.10;;;8.23;;
9763;SDS011;4921;43.214;27.936;2023-09-30T12:32:58;18.73;;;8.90;;
9763;SDS011;4921;43.214;27.936;2023-09-30T12:35:25;19.80;;;8.77;;
9763;SDS011;4921;43.214;27.936;2023-09-30T12:37:52;12.90;;;6.80;;
9763;SDS011;4921;43.214;27.936;2023-09-30T12:40:21;17.63;;;5.83;;
9763;SDS011;4921;43.214;27.936;2023-09-30T12:42:49;14.20;;;8.80;;
9763;SDS011;4921;43.214;27.936;2023-09-30T12:45:16;14.87;;;7.77;;
9763;SDS011;4921;43.214;27.936;2023-09-30T12:47:43;14.30;;;6.93;;
9763;SDS011;4921;43.214;27.936;2023-09-30T12:50:12;10.03;;;6.17;;
9763;SDS011;4921;43.214;27.936;2023-09-30T12:52:39;10.73;;;5.83;;
9763;SDS011;4921;43.214;27.936;2023-09-30T12:55:06;11.57;;;5.53;;
9763;SDS011;4921;43.214;27.936;2023-09-30T12:57:34;16.43;;;5.50;;
9763;SDS011;4921;43.214;27.936;2023-09-30T13:00:01;12.13;;;5.47;;
9763;SDS011;4921;43.214;27.936;2023-09-30T13:02:30;6.87;;;4.90;;
9763;SDS011;4921;43.214;27.936;2023-09-30T13:04:58;11.73;;;5.13;;
9763;SDS011;4921;43.214;27.936;2023-09-30T13:07:24;12.73;;;6.13;;
9763;SDS011;4921;43.214;27.936;2023-09-30T13:09:52;8.90;;;5.33;;
9763;SDS011;4921;43.214;27.936;2023-09-30T13:12:19;9.33;;;5.93;;
9763;SDS011;4921;43.214;27.936;2023-09-30T13:14:47;10.87;;;5.53;;
9763;SDS011;4921;43.214;27.936;2023-09-30T13:17:14;9.30;;;4.40;;
9763;SDS011;4921;43.214;27.936;2023-09-30T13:19:41;12.23;;;5.07;;
9763;SDS011;4921;43.214;27.936;2023-09-30T13:22:08;10.53;;;5.23;;
9763;SDS011;4921;43.214;27.936;2023-09-30T13:24:35;11.33;;;4.93;;
9763;SDS011;4921;43.214;27.936;2023-09-30T13:27:04;8.60;;;5.03;;
9763;SDS011;4921;43.214;27.936;2023-09-30T13:29:31;10.37;;;5.00;;
9763;SDS011;4921;43.214;27.936;2023-09-30T13:32:00;11.47;;;5.00;;
9763;SDS011;4921;43.214;27.936;2023-09-30T13:34:27;13.43;;;5.30;;
9763;SDS011;4921;43.214;27.936;2023-09-30T13:37:13;9.43;;;5.43;;
9763;SDS011;4921;43.214;27.936;2023-09-30T13:39:40;11.37;;;5.17;;
9763;SDS011;4921;43.214;27.936;2023-09-30T13:42:07;7.30;;;4.87;;
9763;SDS011;4921;43.214;27.936;2023-09-30T13:44:35;8.47;;;4.93;;
9763;SDS011;4921;43.214;27.936;2023-09-30T13:47:13;13.73;;;5.23;;
9763;SDS011;4921;43.214;27.936;2023-09-30T13:49:40;15.00;;;4.80;;
9763;SDS011;4921;43.214;27.936;2023-09-30T13:52:07;11.80;;;5.20;;
9763;SDS011;4921;43.214;27.936;2023-09-30T13:54:36;13.57;;;5.60;;
9763;SDS011;4921;43.214;27.936;2023-09-30T13:57:04;14.23;;;5.67;;
9763;SDS011;4921;43.214;27.936;2023-09-30T13:59:40;13.27;;;5.20;;
9763;SDS011;4921;43.214;27.936;2023-09-30T14:02:08;16.30;;;5.27;;
9763;SDS011;4921;43.214;27.936;2023-09-30T14:04:37;8.43;;;5.53;;
9763;SDS011;4921;43.214;27.936;2023-09-30T14:07:04;9.87;;;5.47;;
9763;SDS011;4921;43.214;27.936;2023-09-30T14:09:42;9.90;;;5.13;;
9763;SDS011;4921;43.214;27.936;2023-09-30T14:12:09;10.77;;;5.30;;
9763;SDS011;4921;43.214;27.936;2023-09-30T14:14:37;13.07;;;5.60;;
9763;SDS011;4921;43.214;27.936;2023-09-30T14:17:04;14.77;;;5.40;;
9763;SDS011;4921;43.214;27.936;2023-09-30T14:19:37;14.63;;;6.77;;
9763;SDS011;4921;43.214;27.936;2023-09-30T14:22:05;15.77;;;6.03;;
9763;SDS011;4921;43.214;27.936;2023-09-30T14:24:33;11.37;;;5.50;;
9763;SDS011;4921;43.214;27.936;2023-09-30T14:27:01;7.03;;;5.23;;
9763;SDS011;4921;43.214;27.936;2023-09-30T14:29:29;9.60;;;5.43;;
9763;SDS011;4921;43.214;27.936;2023-09-30T14:31:56;14.87;;;5.00;;
9763;SDS011;4921;43.214;27.936;2023-09-30T14:34:24;10.10;;;4.57;;
9763;SDS011;4921;43.214;27.936;2023-09-30T14:36:52;9.00;;;5.13;;
9763;SDS011;4921;43.214;27.936;2023-09-30T14:39:20;9.03;;;5.37;;
9763;SDS011;4921;43.214;27.936;2023-09-30T14:41:47;12.13;;;5.47;;
9763;SDS011;4921;43.214;27.936;2023-09-30T14:44:14;8.77;;;4.73;;
9763;SDS011;4921;43.214;27.936;2023-09-30T14:46:42;12.30;;;4.50;;
9763;SDS011;4921;43.214;27.936;2023-09-30T14:49:09;8.10;;;4.90;;
9763;SDS011;4921;43.214;27.936;2023-09-30T14:51:36;9.50;;;5.10;;
9763;SDS011;4921;43.214;27.936;2023-09-30T14:54:05;9.73;;;5.07;;
9763;SDS011;4921;43.214;27.936;2023-09-30T14:56:32;10.70;;;4.90;;
9763;SDS011;4921;43.214;27.936;2023-09-30T14:58:59;8.70;;;4.33;;
9763;SDS011;4921;43.214;27.936;2023-09-30T15:01:27;19.80;;;6.43;;
9763;SDS011;4921;43.214;27.936;2023-09-30T15:03:55;7.20;;;4.90;;
9763;SDS011;4921;43.214;27.936;2023-09-30T15:06:22;10.50;;;5.63;;
9763;SDS011;4921;43.214;27.936;2023-09-30T15:08:49;12.33;;;5.27;;
9763;SDS011;4921;43.214;27.936;2023-09-30T15:11:18;11.10;;;5.47;;
9763;SDS011;4921;43.214;27.936;2023-09-30T15:13:45;12.70;;;6.10;;
9763;SDS011;4921;43.214;27.936;2023-09-30T15:16:16;13.67;;;5.10;;